sensor_id;sensor_type;location;lat;lon;timestamp;pressure;altitude;pressure_sealevel;temperature;humidity
73143;BME280;61343;53.694;9.988;2022-10-16T00:01:56;100639.50;;;13.51;94.98
73143;BME280;61343;53.694;9.988;2022-10-16T00:04:21;100633.88;;;13.52;95.15
73143;BME280;61343;53.694;9.988;2022-10-16T00:06:46;100631.44;;;13.51;94.81
73143;BME280;61343;53.694;9.988;2022-10-16T00:09:12;100626.91;;;13.51;94.91
73143;BME280;61343;53.694;9.988;2022-10-16T00:11:38;100638.22;;;13.53;94.65
73143;BME280;61343;53.694;9.988;2022-10-16T00:14:07;100645.91;;;13.50;94.72
73143;BME280;61343;53.694;9.988;2022-10-16T00:16:34;100631.44;;;13.51;94.48
73143;BME280;61343;53.694;9.988;2022-10-16T00:18:59;100645.59;;;13.46;94.70
73143;BME280;61343;53.694;9.988;2022-10-16T00:21:27;100642.09;;;13.46;94.91
73143;BME280;61343;53.694;9.988;2022-10-16T00:23:55;100647.47;;;13.46;94.74
73143;BME280;61343;53.694;9.988;2022-10-16T00:26:21;100640.22;;;13.46;94.77
73143;BME280;61343;53.694;9.988;2022-10-16T00:28:47;100647.69;;;13.44;94.23
73143;BME280;61343;53.694;9.988;2022-10-16T00:31:14;100644.53;;;13.47;94.25
73143;BME280;61343;53.694;9.988;2022-10-16T00:33:40;100653.41;;;13.48;93.80
73143;BME280;61343;53.694;9.988;2022-10-16T00:36:06;100643.94;;;13.45;94.03
73143;BME280;61343;53.694;9.988;2022-10-16T00:38:32;100654.81;;;13.50;93.56
73143;BME280;61343;53.694;9.988;2022-10-16T00:40:57;100660.53;;;13.54;92.74
73143;BME280;61343;53.694;9.988;2022-10-16T00:43:36;100653.19;;;13.49;92.51
73143;BME280;61343;53.694;9.988;2022-10-16T00:46:03;100655.63;;;13.51;92.33
73143;BME280;61343;53.694;9.988;2022-10-16T00:48:30;100650.81;;;13.53;91.20
73143;BME280;61343;53.694;9.988;2022-10-16T00:50:56;100654.34;;;13.53;91.77
73143;BME280;61343;53.694;9.988;2022-10-16T00:53:23;100653.03;;;13.56;90.80
73143;BME280;61343;53.694;9.988;2022-10-16T00:55:50;100659.34;;;13.61;90.63
73143;BME280;61343;53.694;9.988;2022-10-16T00:58:15;100653.84;;;13.68;89.56
73143;BME280;61343;53.694;9.988;2022-10-16T01:00:40;100653.50;;;13.64;89.23
73143;BME280;61343;53.694;9.988;2022-10-16T01:03:26;100659.34;;;13.61;89.02
73143;BME280;61343;53.694;9.988;2022-10-16T01:06:02;100665.06;;;13.65;88.64
73143;BME280;61343;53.694;9.988;2022-10-16T01:08:50;100666.63;;;13.61;88.17
73143;BME280;61343;53.694;9.988;2022-10-16T01:13:54;100672.69;;;13.56;87.97
73143;BME280;61343;53.694;9.988;2022-10-16T01:18:57;100676.53;;;13.49;88.22
73143;BME280;61343;53.694;9.988;2022-10-16T01:21:36;100675.72;;;13.48;88.00
73143;BME280;61343;53.694;9.988;2022-10-16T01:29:56;100675.00;;;13.41;87.84
73143;BME280;61343;53.694;9.988;2022-10-16T01:32:32;100677.59;;;13.36;87.39
73143;BME280;61343;53.694;9.988;2022-10-16T01:35:05;100674.31;;;13.34;87.45
73143;BME280;61343;53.694;9.988;2022-10-16T01:37:48;100678.88;;;13.33;87.28
73143;BME280;61343;53.694;9.988;2022-10-16T01:40:18;100679.34;;;13.30;87.54
73143;BME280;61343;53.694;9.988;2022-10-16T01:42:50;100682.03;;;13.30;87.91
73143;BME280;61343;53.694;9.988;2022-10-16T01:45:18;100681.91;;;13.25;87.71
73143;BME280;61343;53.694;9.988;2022-10-16T01:47:46;100680.63;;;13.28;87.84
73143;BME280;61343;53.694;9.988;2022-10-16T01:50:14;100681.31;;;13.23;87.97
73143;BME280;61343;53.694;9.988;2022-10-16T01:52:44;100680.94;;;13.20;87.72
73143;BME280;61343;53.694;9.988;2022-10-16T01:55:13;100685.16;;;13.16;87.66
73143;BME280;61343;53.694;9.988;2022-10-16T01:57:42;100678.72;;;13.17;87.81
73143;BME280;61343;53.694;9.988;2022-10-16T02:00:10;100677.09;;;13.16;87.94
73143;BME280;61343;53.694;9.988;2022-10-16T02:02:39;100687.47;;;13.12;87.58
73143;BME280;61343;53.694;9.988;2022-10-16T02:07:42;100688.97;;;13.08;87.94
73143;BME280;61343;53.694;9.988;2022-10-16T02:10:08;100686.97;;;13.04;88.29
73143;BME280;61343;53.694;9.988;2022-10-16T02:12:36;100692.69;;;12.96;88.58
73143;BME280;61343;53.694;9.988;2022-10-16T02:15:05;100682.28;;;12.99;88.47
73143;BME280;61343;53.694;9.988;2022-10-16T02:17:30;100691.41;;;12.98;88.61
73143;BME280;61343;53.694;9.988;2022-10-16T02:19:56;100682.75;;;12.96;88.01
73143;BME280;61343;53.694;9.988;2022-10-16T02:22:27;100682.75;;;12.96;88.11
73143;BME280;61343;53.694;9.988;2022-10-16T02:25:08;100690.91;;;12.90;88.21
73143;BME280;61343;53.694;9.988;2022-10-16T02:30:29;100684.47;;;12.91;88.54
73143;BME280;61343;53.694;9.988;2022-10-16T02:32:58;100690.19;;;12.82;87.96
73143;BME280;61343;53.694;9.988;2022-10-16T02:35:26;100689.97;;;12.84;88.14
73143;BME280;61343;53.694;9.988;2022-10-16T02:37:53;100698.59;;;12.86;87.94
73143;BME280;61343;53.694;9.988;2022-10-16T02:40:19;100697.31;;;12.88;87.48
73143;BME280;61343;53.694;9.988;2022-10-16T02:42:50;100688.66;;;12.75;88.00
73143;BME280;61343;53.694;9.988;2022-10-16T02:45:16;100691.81;;;12.72;87.93
73143;BME280;61343;53.694;9.988;2022-10-16T02:47:41;100700.06;;;12.70;87.87
73143;BME280;61343;53.694;9.988;2022-10-16T02:50:07;100689.13;;;12.72;87.74
73143;BME280;61343;53.694;9.988;2022-10-16T02:52:32;100691.81;;;12.72;88.13
73143;BME280;61343;53.694;9.988;2022-10-16T02:54:57;100688.50;;;12.70;88.02
73143;BME280;61343;53.694;9.988;2022-10-16T02:57:22;100686.44;;;12.72;87.63
73143;BME280;61343;53.694;9.988;2022-10-16T02:59:48;100682.66;;;12.61;87.81
73143;BME280;61343;53.694;9.988;2022-10-16T03:02:13;100682.44;;;12.63;87.48
73143;BME280;61343;53.694;9.988;2022-10-16T03:04:38;100692.09;;;12.64;87.56
73143;BME280;61343;53.694;9.988;2022-10-16T03:07:04;100689.41;;;12.64;87.71
73143;BME280;61343;53.694;9.988;2022-10-16T03:09:29;100692.56;;;12.61;88.32
73143;BME280;61343;53.694;9.988;2022-10-16T03:11:55;100686.63;;;12.59;87.93
73143;BME280;61343;53.694;9.988;2022-10-16T03:14:20;100682.97;;;12.53;88.04
73143;BME280;61343;53.694;9.988;2022-10-16T03:16:46;100677.25;;;12.50;88.07
73143;BME280;61343;53.694;9.988;2022-10-16T03:19:11;100687.59;;;12.46;88.12
73143;BME280;61343;53.694;9.988;2022-10-16T03:21:36;100681.00;;;12.49;88.04
73143;BME280;61343;53.694;9.988;2022-10-16T03:24:02;100671.88;;;12.50;88.05
73143;BME280;61343;53.694;9.988;2022-10-16T03:26:27;100688.06;;;12.43;88.48
73143;BME280;61343;53.694;9.988;2022-10-16T03:28:52;100686.66;;;12.41;88.52
73143;BME280;61343;53.694;9.988;2022-10-16T03:31:17;100683.97;;;12.41;88.49
73143;BME280;61343;53.694;9.988;2022-10-16T03:33:43;100680.69;;;12.39;88.37
73143;BME280;61343;53.694;9.988;2022-10-16T03:36:08;100690.16;;;12.41;88.55
73143;BME280;61343;53.694;9.988;2022-10-16T03:38:33;100683.38;;;12.39;88.74
73143;BME280;61343;53.694;9.988;2022-10-16T03:40:59;100694.13;;;12.39;88.78
73143;BME280;61343;53.694;9.988;2022-10-16T03:43:24;100694.78;;;12.34;88.64
73143;BME280;61343;53.694;9.988;2022-10-16T03:45:50;100688.38;;;12.35;88.87
73143;BME280;61343;53.694;9.988;2022-10-16T03:48:16;100688.81;;;12.32;88.78
73143;BME280;61343;53.694;9.988;2022-10-16T03:50:41;100699.78;;;12.30;88.86
73143;BME280;61343;53.694;9.988;2022-10-16T03:53:07;100696.50;;;12.28;88.90
73143;BME280;61343;53.694;9.988;2022-10-16T03:55:32;100692.34;;;12.32;88.85
73143;BME280;61343;53.694;9.988;2022-10-16T03:57:57;100701.19;;;12.33;88.73
73143;BME280;61343;53.694;9.988;2022-10-16T04:00:23;100700.63;;;12.31;89.14
73143;BME280;61343;53.694;9.988;2022-10-16T04:02:48;100707.22;;;12.28;88.86
73143;BME280;61343;53.694;9.988;2022-10-16T04:05:13;100711.22;;;12.38;88.73
73143;BME280;61343;53.694;9.988;2022-10-16T04:07:38;100711.69;;;12.35;88.59
73143;BME280;61343;53.694;9.988;2022-10-16T04:10:04;100725.72;;;12.37;88.43
73143;BME280;61343;53.694;9.988;2022-10-16T04:12:29;100730.63;;;12.40;88.19
73143;BME280;61343;53.694;9.988;2022-10-16T04:14:55;100741.81;;;12.37;88.24
73143;BME280;61343;53.694;9.988;2022-10-16T04:17:20;100736.06;;;12.33;88.29
73143;BME280;61343;53.694;9.988;2022-10-16T04:19:45;100728.03;;;12.33;88.38
73143;BME280;61343;53.694;9.988;2022-10-16T04:22:11;100742.00;;;12.35;87.84
73143;BME280;61343;53.694;9.988;2022-10-16T04:24:36;100741.81;;;12.37;88.01
73143;BME280;61343;53.694;9.988;2022-10-16T04:27:01;100746.72;;;12.40;88.25
73143;BME280;61343;53.694;9.988;2022-10-16T04:29:26;100742.25;;;12.34;88.41
73143;BME280;61343;53.694;9.988;2022-10-16T04:31:52;100739.31;;;12.35;88.07
73143;BME280;61343;53.694;9.988;2022-10-16T04:34:17;100732.94;;;12.36;87.97
73143;BME280;61343;53.694;9.988;2022-10-16T04:36:42;100729.06;;;12.32;87.86
73143;BME280;61343;53.694;9.988;2022-10-16T04:39:08;100741.44;;;12.33;88.31
73143;BME280;61343;53.694;9.988;2022-10-16T04:41:33;100751.91;;;12.35;88.08
73143;BME280;61343;53.694;9.988;2022-10-16T04:43:58;100751.31;;;12.32;88.19
73143;BME280;61343;53.694;9.988;2022-10-16T04:46:23;100761.91;;;12.27;88.23
73143;BME280;61343;53.694;9.988;2022-10-16T04:48:49;100753.88;;;12.27;87.87
73143;BME280;61343;53.694;9.988;2022-10-16T04:51:14;100778.00;;;12.27;88.25
73143;BME280;61343;53.694;9.988;2022-10-16T04:53:39;100768.31;;;12.26;88.14
73143;BME280;61343;53.694;9.988;2022-10-16T04:56:04;100760.13;;;12.21;88.41
73143;BME280;61343;53.694;9.988;2022-10-16T04:58:30;100761.75;;;12.22;88.74
73143;BME280;61343;53.694;9.988;2022-10-16T05:00:55;100768.16;;;12.21;88.47
73143;BME280;61343;53.694;9.988;2022-10-16T05:03:20;100769.22;;;12.20;88.75
73143;BME280;61343;53.694;9.988;2022-10-16T05:05:46;100765.94;;;12.18;88.47
73143;BME280;61343;53.694;9.988;2022-10-16T05:08:13;100770.25;;;12.19;88.41
73143;BME280;61343;53.694;9.988;2022-10-16T05:10:39;100761.16;;;12.20;88.29
73143;BME280;61343;53.694;9.988;2022-10-16T05:13:05;100764.88;;;12.19;88.58
73143;BME280;61343;53.694;9.988;2022-10-16T05:15:31;100757.66;;;12.20;88.84
73143;BME280;61343;53.694;9.988;2022-10-16T05:17:56;100766.53;;;12.20;88.74
73143;BME280;61343;53.694;9.988;2022-10-16T05:20:22;100770.16;;;12.26;88.83
73143;BME280;61343;53.694;9.988;2022-10-16T05:22:48;100776.94;;;12.28;88.91
73143;BME280;61343;53.694;9.988;2022-10-16T05:25:13;100772.53;;;12.34;88.81
73143;BME280;61343;53.694;9.988;2022-10-16T05:27:38;100779.34;;;12.37;88.94
73143;BME280;61343;53.694;9.988;2022-10-16T05:30:04;100771.88;;;12.39;88.74
73143;BME280;61343;53.694;9.988;2022-10-16T05:32:29;100776.81;;;12.42;89.02
73143;BME280;61343;53.694;9.988;2022-10-16T05:34:55;100789.63;;;12.40;89.00
73143;BME280;61343;53.694;9.988;2022-10-16T05:37:20;100791.69;;;12.38;89.15
73143;BME280;61343;53.694;9.988;2022-10-16T05:39:45;100798.13;;;12.37;89.31
73143;BME280;61343;53.694;9.988;2022-10-16T05:42:10;100800.94;;;12.42;88.97
73143;BME280;61343;53.694;9.988;2022-10-16T05:44:36;100809.44;;;12.39;89.27
73143;BME280;61343;53.694;9.988;2022-10-16T05:47:01;100803.63;;;12.42;89.51
73143;BME280;61343;53.694;9.988;2022-10-16T05:49:26;100805.28;;;12.43;89.86
73143;BME280;61343;53.694;9.988;2022-10-16T05:51:51;100791.25;;;12.41;89.58
73143;BME280;61343;53.694;9.988;2022-10-16T05:54:17;100790.88;;;12.37;89.77
73143;BME280;61343;53.694;9.988;2022-10-16T05:56:42;100803.38;;;12.43;89.76
73143;BME280;61343;53.694;9.988;2022-10-16T05:59:07;100800.13;;;12.41;89.89
73143;BME280;61343;53.694;9.988;2022-10-16T06:01:33;100800.94;;;12.42;90.13
73143;BME280;61343;53.694;9.988;2022-10-16T06:03:58;100795.19;;;12.38;89.83
73143;BME280;61343;53.694;9.988;2022-10-16T06:06:27;100811.44;;;12.43;90.11
73143;BME280;61343;53.694;9.988;2022-10-16T06:08:54;100801.97;;;12.41;90.06
73143;BME280;61343;53.694;9.988;2022-10-16T06:11:23;100794.53;;;12.43;89.79
73143;BME280;61343;53.694;9.988;2022-10-16T06:13:50;100799.09;;;12.42;90.21
73143;BME280;61343;53.694;9.988;2022-10-16T06:16:15;100802.41;;;12.38;90.20
73143;BME280;61343;53.694;9.988;2022-10-16T06:18:40;100800.69;;;12.43;89.82
73143;BME280;61343;53.694;9.988;2022-10-16T06:21:14;100807.28;;;12.47;89.97
73143;BME280;61343;53.694;9.988;2022-10-16T06:23:41;100817.19;;;12.47;89.86
73143;BME280;61343;53.694;9.988;2022-10-16T06:26:11;100814.28;;;12.48;89.98
73143;BME280;61343;53.694;9.988;2022-10-16T06:28:37;100813.00;;;12.51;90.17
73143;BME280;61343;53.694;9.988;2022-10-16T06:31:04;100822.09;;;12.50;89.73
73143;BME280;61343;53.694;9.988;2022-10-16T06:33:30;100814.66;;;12.52;89.97
73143;BME280;61343;53.694;9.988;2022-10-16T06:36:03;100816.28;;;12.53;89.96
73143;BME280;61343;53.694;9.988;2022-10-16T06:38:28;100823.28;;;12.54;90.07
73143;BME280;61343;53.694;9.988;2022-10-16T06:40:54;100822.22;;;12.55;90.14
73143;BME280;61343;53.694;9.988;2022-10-16T06:43:19;100824.47;;;12.58;89.98
73143;BME280;61343;53.694;9.988;2022-10-16T06:45:51;100833.13;;;12.60;90.27
73143;BME280;61343;53.694;9.988;2022-10-16T06:48:16;100843.41;;;12.63;90.21
73143;BME280;61343;53.694;9.988;2022-10-16T06:50:41;100843.56;;;12.68;90.15
73143;BME280;61343;53.694;9.988;2022-10-16T06:53:07;100854.22;;;12.74;89.89
73143;BME280;61343;53.694;9.988;2022-10-16T06:55:32;100858.25;;;12.83;89.70
73143;BME280;61343;53.694;9.988;2022-10-16T06:57:57;100852.94;;;12.95;89.56
73143;BME280;61343;53.694;9.988;2022-10-16T07:00:22;100852.03;;;13.01;89.21
73143;BME280;61343;53.694;9.988;2022-10-16T07:02:48;100850.69;;;13.10;88.67
73143;BME280;61343;53.694;9.988;2022-10-16T07:05:13;100855.88;;;13.23;88.33
73143;BME280;61343;53.694;9.988;2022-10-16T07:07:38;100863.59;;;13.31;88.22
73143;BME280;61343;53.694;9.988;2022-10-16T07:10:04;100863.06;;;13.41;87.81
73143;BME280;61343;53.694;9.988;2022-10-16T07:12:29;100872.66;;;13.49;87.88
73143;BME280;61343;53.694;9.988;2022-10-16T07:14:54;100875.34;;;13.49;87.63
73143;BME280;61343;53.694;9.988;2022-10-16T07:17:21;100879.34;;;13.58;87.26
73143;BME280;61343;53.694;9.988;2022-10-16T07:19:46;100871.88;;;13.60;87.72
73143;BME280;61343;53.694;9.988;2022-10-16T07:22:11;100873.31;;;13.74;86.71
73143;BME280;61343;53.694;9.988;2022-10-16T07:24:37;100879.59;;;13.68;87.30
73143;BME280;61343;53.694;9.988;2022-10-16T07:27:02;100890.13;;;13.69;87.48
73143;BME280;61343;53.694;9.988;2022-10-16T07:29:27;100889.44;;;13.74;87.39
73143;BME280;61343;53.694;9.988;2022-10-16T07:31:52;100887.00;;;13.72;87.63
73143;BME280;61343;53.694;9.988;2022-10-16T07:34:19;100890.00;;;13.76;87.20
73143;BME280;61343;53.694;9.988;2022-10-16T07:36:47;100905.47;;;13.80;87.30
73143;BME280;61343;53.694;9.988;2022-10-16T07:39:13;100906.75;;;13.78;87.37
73143;BME280;61343;53.694;9.988;2022-10-16T07:41:38;100908.63;;;13.89;87.62
73143;BME280;61343;53.694;9.988;2022-10-16T07:44:03;100903.97;;;13.96;86.85
73143;BME280;61343;53.694;9.988;2022-10-16T07:46:29;100907.25;;;13.98;86.42
73143;BME280;61343;53.694;9.988;2022-10-16T07:48:55;100908.91;;;13.99;86.76
73143;BME280;61343;53.694;9.988;2022-10-16T07:51:22;100912.63;;;13.98;86.73
73143;BME280;61343;53.694;9.988;2022-10-16T07:53:49;100909.22;;;14.03;86.60
73143;BME280;61343;53.694;9.988;2022-10-16T07:56:15;100918.94;;;14.04;86.97
73143;BME280;61343;53.694;9.988;2022-10-16T07:58:41;100919.88;;;14.09;86.94
73143;BME280;61343;53.694;9.988;2022-10-16T08:01:12;100929.13;;;14.13;86.33
73143;BME280;61343;53.694;9.988;2022-10-16T08:03:38;100930.28;;;14.06;86.90
73143;BME280;61343;53.694;9.988;2022-10-16T08:06:04;100931.00;;;14.01;87.32
73143;BME280;61343;53.694;9.988;2022-10-16T08:08:29;100940.34;;;13.98;87.29
73143;BME280;61343;53.694;9.988;2022-10-16T08:10:55;100937.88;;;13.97;86.98
73143;BME280;61343;53.694;9.988;2022-10-16T08:13:21;100939.84;;;13.90;88.03
73143;BME280;61343;53.694;9.988;2022-10-16T08:15:46;100947.69;;;13.91;88.03
73143;BME280;61343;53.694;9.988;2022-10-16T08:18:13;100948.16;;;14.00;87.49
73143;BME280;61343;53.694;9.988;2022-10-16T08:20:39;100940.13;;;14.12;86.50
73143;BME280;61343;53.694;9.988;2022-10-16T08:23:04;100951.78;;;14.06;86.78
73143;BME280;61343;53.694;9.988;2022-10-16T08:25:29;100948.31;;;14.05;87.46
73143;BME280;61343;53.694;9.988;2022-10-16T08:27:55;100950.03;;;14.11;87.47
73143;BME280;61343;53.694;9.988;2022-10-16T08:30:22;100945.28;;;14.13;87.11
73143;BME280;61343;53.694;9.988;2022-10-16T08:32:47;100953.00;;;14.21;87.13
73143;BME280;61343;53.694;9.988;2022-10-16T08:35:14;100944.00;;;14.27;86.77
73143;BME280;61343;53.694;9.988;2022-10-16T08:37:40;100948.84;;;14.37;86.71
73143;BME280;61343;53.694;9.988;2022-10-16T08:40:11;100948.84;;;14.48;86.08
73143;BME280;61343;53.694;9.988;2022-10-16T08:45:29;100952.81;;;14.46;85.17
73143;BME280;61343;53.694;9.988;2022-10-16T08:48:10;100952.47;;;14.42;84.92
73143;BME280;61343;53.694;9.988;2022-10-16T08:50:41;100948.50;;;14.45;85.29
73143;BME280;61343;53.694;9.988;2022-10-16T08:53:14;100954.34;;;14.53;85.42
73143;BME280;61343;53.694;9.988;2022-10-16T08:55:41;100958.78;;;14.60;85.03
73143;BME280;61343;53.694;9.988;2022-10-16T08:58:11;100960.06;;;14.69;85.50
73143;BME280;61343;53.694;9.988;2022-10-16T09:00:38;100975.16;;;14.81;83.94
73143;BME280;61343;53.694;9.988;2022-10-16T09:03:13;100984.56;;;14.67;84.67
73143;BME280;61343;53.694;9.988;2022-10-16T09:06:17;100985.47;;;14.73;84.81
73143;BME280;61343;53.694;9.988;2022-10-16T09:12:19;100986.06;;;14.75;84.21
73143;BME280;61343;53.694;9.988;2022-10-16T09:20:35;100992.94;;;14.94;83.96
73143;BME280;61343;53.694;9.988;2022-10-16T09:25:28;101009.09;;;14.94;82.66
73143;BME280;61343;53.694;9.988;2022-10-16T09:27:54;101015.06;;;15.07;82.10
73143;BME280;61343;53.694;9.988;2022-10-16T09:30:21;101009.31;;;15.16;80.72
73143;BME280;61343;53.694;9.988;2022-10-16T09:32:49;101006.84;;;15.26;80.61
73143;BME280;61343;53.694;9.988;2022-10-16T09:35:20;101006.00;;;15.37;80.15
73143;BME280;61343;53.694;9.988;2022-10-16T09:37:48;101006.09;;;15.42;80.01
73143;BME280;61343;53.694;9.988;2022-10-16T09:40:32;101003.53;;;15.47;79.13
73143;BME280;61343;53.694;9.988;2022-10-16T09:46:37;100993.72;;;15.69;78.53
73143;BME280;61343;53.694;9.988;2022-10-16T09:48:47;100995.69;;;15.74;77.84
73143;BME280;61343;53.694;9.988;2022-10-16T09:51:20;101014.06;;;15.77;77.57
73143;BME280;61343;53.694;9.988;2022-10-16T09:53:46;101015.72;;;15.78;77.58
73143;BME280;61343;53.694;9.988;2022-10-16T09:56:28;101013.59;;;15.80;77.46
73143;BME280;61343;53.694;9.988;2022-10-16T09:58:56;101017.81;;;15.87;78.29
73143;BME280;61343;53.694;9.988;2022-10-16T10:01:45;101022.47;;;15.92;77.20
73143;BME280;61343;53.694;9.988;2022-10-16T10:04:10;101029.69;;;16.03;76.72
73143;BME280;61343;53.694;9.988;2022-10-16T10:06:37;101037.19;;;16.01;76.58
73143;BME280;61343;53.694;9.988;2022-10-16T10:09:38;101037.78;;;16.03;77.26
73143;BME280;61343;53.694;9.988;2022-10-16T10:12:05;101044.25;;;16.02;76.21
73143;BME280;61343;53.694;9.988;2022-10-16T10:14:55;101034.56;;;15.89;76.18
73143;BME280;61343;53.694;9.988;2022-10-16T10:17:25;101042.84;;;15.99;76.40
73143;BME280;61343;53.694;9.988;2022-10-16T10:22:47;101038.38;;;16.05;75.94
73143;BME280;61343;53.694;9.988;2022-10-16T10:30:09;101041.56;;;16.18;74.87
73143;BME280;61343;53.694;9.988;2022-10-16T10:35:55;101047.63;;;16.26;73.94
73143;BME280;61343;53.694;9.988;2022-10-16T10:40:54;101051.34;;;16.53;71.64
73143;BME280;61343;53.694;9.988;2022-10-16T10:46:45;101056.53;;;16.54;72.37
73143;BME280;61343;53.694;9.988;2022-10-16T10:54:39;101062.78;;;16.43;73.92
73143;BME280;61343;53.694;9.988;2022-10-16T10:57:10;101059.53;;;16.41;73.50
73143;BME280;61343;53.694;9.988;2022-10-16T10:59:54;101064.66;;;16.43;73.03
73143;BME280;61343;53.694;9.988;2022-10-16T11:02:57;101057.38;;;16.43;73.56
73143;BME280;61343;53.694;9.988;2022-10-16T11:08:13;101066.28;;;16.55;73.48
73143;BME280;61343;53.694;9.988;2022-10-16T11:10:56;101084.34;;;16.71;72.99
73143;BME280;61343;53.694;9.988;2022-10-16T11:13:44;101090.34;;;16.73;72.20
73143;BME280;61343;53.694;9.988;2022-10-16T11:16:35;101081.00;;;16.81;72.13
73143;BME280;61343;53.694;9.988;2022-10-16T11:19:12;101098.69;;;16.89;71.39
73143;BME280;61343;53.694;9.988;2022-10-16T11:21:47;101090.47;;;16.84;70.51
73143;BME280;61343;53.694;9.988;2022-10-16T11:24:20;101089.00;;;16.93;69.98
73143;BME280;61343;53.694;9.988;2022-10-16T11:26:48;101092.88;;;16.97;69.75
73143;BME280;61343;53.694;9.988;2022-10-16T11:29:23;101101.31;;;17.00;68.04
73143;BME280;61343;53.694;9.988;2022-10-16T11:31:57;101105.06;;;16.99;68.67
73143;BME280;61343;53.694;9.988;2022-10-16T11:34:50;101114.88;;;17.05;69.17
73143;BME280;61343;53.694;9.988;2022-10-16T11:37:17;101111.28;;;17.00;68.75
73143;BME280;61343;53.694;9.988;2022-10-16T11:39:44;101113.41;;;16.98;68.61
73143;BME280;61343;53.694;9.988;2022-10-16T11:42:44;101112.00;;;16.95;70.00
73143;BME280;61343;53.694;9.988;2022-10-16T11:47:41;101114.38;;;16.92;69.38
73143;BME280;61343;53.694;9.988;2022-10-16T11:50:23;101120.88;;;16.91;69.33
73143;BME280;61343;53.694;9.988;2022-10-16T11:55:45;101123.00;;;16.89;70.11
73143;BME280;61343;53.694;9.988;2022-10-16T12:06:22;101133.03;;;17.10;69.77
73143;BME280;61343;53.694;9.988;2022-10-16T12:08:51;101132.06;;;17.16;68.35
73143;BME280;61343;53.694;9.988;2022-10-16T12:14:07;101132.69;;;17.40;66.49
73143;BME280;61343;53.694;9.988;2022-10-16T12:17:00;101145.53;;;17.49;64.15
73143;BME280;61343;53.694;9.988;2022-10-16T12:19:28;101162.19;;;17.41;64.61
73143;BME280;61343;53.694;9.988;2022-10-16T12:21:56;101160.22;;;17.53;65.07
73143;BME280;61343;53.694;9.988;2022-10-16T12:24:41;101171.69;;;17.44;64.80
73143;BME280;61343;53.694;9.988;2022-10-16T12:27:28;101175.53;;;17.31;63.31
73143;BME280;61343;53.694;9.988;2022-10-16T12:29:56;101179.06;;;17.32;65.18
73143;BME280;61343;53.694;9.988;2022-10-16T12:34:53;101174.97;;;17.29;63.98
73143;BME280;61343;53.694;9.988;2022-10-16T12:37:29;101178.41;;;17.08;65.44
73143;BME280;61343;53.694;9.988;2022-10-16T12:39:56;101180.88;;;16.93;65.54
73143;BME280;61343;53.694;9.988;2022-10-16T12:42:32;101178.50;;;16.80;64.91
73143;BME280;61343;53.694;9.988;2022-10-16T12:44:59;101184.63;;;16.75;65.55
73143;BME280;61343;53.694;9.988;2022-10-16T12:49:56;101189.06;;;16.98;63.83
73143;BME280;61343;53.694;9.988;2022-10-16T12:52:36;101194.56;;;17.19;63.01
73143;BME280;61343;53.694;9.988;2022-10-16T12:55:02;101193.84;;;17.24;63.96
73143;BME280;61343;53.694;9.988;2022-10-16T13:03:27;101202.75;;;17.58;60.38
73143;BME280;61343;53.694;9.988;2022-10-16T13:06:07;101204.72;;;17.62;61.64
73143;BME280;61343;53.694;9.988;2022-10-16T13:12:01;101212.41;;;17.70;59.25
73143;BME280;61343;53.694;9.988;2022-10-16T13:17:37;101231.19;;;17.60;61.21
73143;BME280;61343;53.694;9.988;2022-10-16T13:20:28;101234.22;;;17.47;58.98
73143;BME280;61343;53.694;9.988;2022-10-16T13:28:12;101251.66;;;17.40;60.03
73143;BME280;61343;53.694;9.988;2022-10-16T13:30:44;101248.22;;;17.44;60.33
73143;BME280;61343;53.694;9.988;2022-10-16T13:33:20;101245.91;;;17.36;58.69
73143;BME280;61343;53.694;9.988;2022-10-16T13:35:54;101267.47;;;17.31;60.02
73143;BME280;61343;53.694;9.988;2022-10-16T13:38:25;101265.72;;;17.25;60.02
73143;BME280;61343;53.694;9.988;2022-10-16T13:43:34;101270.50;;;17.18;60.68
73143;BME280;61343;53.694;9.988;2022-10-16T13:46:03;101268.44;;;17.25;60.87
73143;BME280;61343;53.694;9.988;2022-10-16T13:48:30;101273.44;;;17.33;61.66
73143;BME280;61343;53.694;9.988;2022-10-16T13:51:21;101284.56;;;17.20;61.12
73143;BME280;61343;53.694;9.988;2022-10-16T13:53:51;101283.66;;;17.14;62.79
73143;BME280;61343;53.694;9.988;2022-10-16T13:56:19;101284.38;;;17.10;63.30
73143;BME280;61343;53.694;9.988;2022-10-16T13:58:45;101287.97;;;16.99;62.66
73143;BME280;61343;53.694;9.988;2022-10-16T14:01:18;101285.84;;;17.01;63.81
73143;BME280;61343;53.694;9.988;2022-10-16T14:03:45;101294.53;;;17.03;63.30
73143;BME280;61343;53.694;9.988;2022-10-16T14:06:17;101295.78;;;17.12;64.19
73143;BME280;61343;53.694;9.988;2022-10-16T14:08:46;101301.97;;;17.24;63.52
73143;BME280;61343;53.694;9.988;2022-10-16T14:11:20;101299.25;;;17.24;61.64
73143;BME280;61343;53.694;9.988;2022-10-16T14:13:47;101310.09;;;17.12;62.72
73143;BME280;61343;53.694;9.988;2022-10-16T14:16:18;101322.34;;;17.15;62.58
73143;BME280;61343;53.694;9.988;2022-10-16T14:18:55;101310.03;;;17.07;62.96
73143;BME280;61343;53.694;9.988;2022-10-16T14:21:21;101321.75;;;17.13;61.84
73143;BME280;61343;53.694;9.988;2022-10-16T14:23:46;101318.13;;;17.07;62.48
73143;BME280;61343;53.694;9.988;2022-10-16T14:26:14;101318.94;;;17.08;63.33
73143;BME280;61343;53.694;9.988;2022-10-16T14:28:41;101326.97;;;17.03;62.85
73143;BME280;61343;53.694;9.988;2022-10-16T14:31:26;101328.41;;;16.94;64.29
73143;BME280;61343;53.694;9.988;2022-10-16T14:33:52;101337.00;;;16.91;63.93
73143;BME280;61343;53.694;9.988;2022-10-16T14:36:17;101333.81;;;16.94;63.42
73143;BME280;61343;53.694;9.988;2022-10-16T14:39:03;101349.44;;;16.92;62.99
73143;BME280;61343;53.694;9.988;2022-10-16T14:41:41;101352.66;;;16.89;63.85